sensor_id;sensor_type;location;lat;lon;timestamp;P1;durP1;ratioP1;P2;durP2;ratioP2
69410;SDS011;56604;48.652;9.194;2022-11-20T00:01:08;4.70;;;4.30;;
69410;SDS011;56604;48.652;9.194;2022-11-20T00:03:38;5.47;;;4.40;;
69410;SDS011;56604;48.652;9.194;2022-11-20T00:06:04;5.03;;;4.20;;
69410;SDS011;56604;48.652;9.194;2022-11-20T00:08:32;4.93;;;3.77;;
69410;SDS011;56604;48.652;9.194;2022-11-20T00:11:02;4.17;;;3.87;;
69410;SDS011;56604;48.652;9.194;2022-11-20T00:13:32;6.50;;;4.03;;
69410;SDS011;56604;48.652;9.194;2022-11-20T00:15:58;8.10;;;3.93;;
69410;SDS011;56604;48.652;9.194;2022-11-20T00:18:25;3.50;;;3.30;;
69410;SDS011;56604;48.652;9.194;2022-11-20T00:20:50;5.43;;;4.30;;
69410;SDS011;56604;48.652;9.194;2022-11-20T00:23:16;5.83;;;3.77;;
69410;SDS011;56604;48.652;9.194;2022-11-20T00:25:41;4.40;;;4.10;;
69410;SDS011;56604;48.652;9.194;2022-11-20T00:28:06;3.87;;;3.67;;
69410;SDS011;56604;48.652;9.194;2022-11-20T00:30:31;4.20;;;3.80;;
69410;SDS011;56604;48.652;9.194;2022-11-20T00:32:57;3.80;;;3.50;;
69410;SDS011;56604;48.652;9.194;2022-11-20T00:35:22;3.23;;;3.03;;
69410;SDS011;56604;48.652;9.194;2022-11-20T00:37:48;3.80;;;3.50;;
69410;SDS011;56604;48.652;9.194;2022-11-20T00:40:13;3.60;;;3.40;;
69410;SDS011;56604;48.652;9.194;2022-11-20T00:42:38;3.53;;;3.33;;
69410;SDS011;56604;48.652;9.194;2022-11-20T00:45:04;3.20;;;3.07;;
69410;SDS011;56604;48.652;9.194;2022-11-20T00:47:30;4.00;;;3.60;;
69410;SDS011;56604;48.652;9.194;2022-11-20T00:49:55;4.03;;;3.73;;
69410;SDS011;56604;48.652;9.194;2022-11-20T00:52:20;6.30;;;3.17;;
69410;SDS011;56604;48.652;9.194;2022-11-20T00:54:45;3.47;;;3.20;;
69410;SDS011;56604;48.652;9.194;2022-11-20T00:57:11;3.07;;;2.90;;
69410;SDS011;56604;48.652;9.194;2022-11-20T00:59:36;3.87;;;3.57;;
69410;SDS011;56604;48.652;9.194;2022-11-20T01:02:01;4.23;;;3.40;;
69410;SDS011;56604;48.652;9.194;2022-11-20T01:04:26;2.93;;;2.83;;
69410;SDS011;56604;48.652;9.194;2022-11-20T01:06:52;3.60;;;3.30;;
69410;SDS011;56604;48.652;9.194;2022-11-20T01:09:17;3.23;;;3.13;;
69410;SDS011;56604;48.652;9.194;2022-11-20T01:11:43;3.33;;;2.60;;
69410;SDS011;56604;48.652;9.194;2022-11-20T01:14:11;3.43;;;3.33;;
69410;SDS011;56604;48.652;9.194;2022-11-20T01:16:40;3.20;;;3.03;;
69410;SDS011;56604;48.652;9.194;2022-11-20T01:19:12;4.70;;;3.33;;
69410;SDS011;56604;48.652;9.194;2022-11-20T01:21:40;3.77;;;3.50;;
69410;SDS011;56604;48.652;9.194;2022-11-20T01:24:07;4.87;;;3.67;;
69410;SDS011;56604;48.652;9.194;2022-11-20T01:26:34;4.27;;;3.40;;
69410;SDS011;56604;48.652;9.194;2022-11-20T01:29:01;3.13;;;2.90;;
69410;SDS011;56604;48.652;9.194;2022-11-20T01:31:32;3.70;;;3.40;;
69410;SDS011;56604;48.652;9.194;2022-11-20T01:34:04;3.50;;;3.13;;
69410;SDS011;56604;48.652;9.194;2022-11-20T01:36:31;3.10;;;3.00;;
69410;SDS011;56604;48.652;9.194;2022-11-20T01:38:59;3.53;;;3.23;;
69410;SDS011;56604;48.652;9.194;2022-11-20T01:41:27;3.60;;;3.37;;
69410;SDS011;56604;48.652;9.194;2022-11-20T01:44:13;10.23;;;3.43;;
69410;SDS011;56604;48.652;9.194;2022-11-20T01:46:42;4.73;;;3.53;;
69410;SDS011;56604;48.652;9.194;2022-11-20T01:49:34;3.50;;;3.30;;
69410;SDS011;56604;48.652;9.194;2022-11-20T01:52:05;9.33;;;4.60;;
69410;SDS011;56604;48.652;9.194;2022-11-20T01:54:44;5.87;;;4.10;;
69410;SDS011;56604;48.652;9.194;2022-11-20T01:57:13;4.30;;;4.03;;
69410;SDS011;56604;48.652;9.194;2022-11-20T01:59:41;5.40;;;4.53;;
69410;SDS011;56604;48.652;9.194;2022-11-20T02:02:12;4.50;;;4.10;;
69410;SDS011;56604;48.652;9.194;2022-11-20T02:04:38;4.40;;;4.10;;
69410;SDS011;56604;48.652;9.194;2022-11-20T02:07:03;7.27;;;4.87;;
69410;SDS011;56604;48.652;9.194;2022-11-20T02:09:30;5.63;;;3.60;;
69410;SDS011;56604;48.652;9.194;2022-11-20T02:11:55;8.10;;;4.53;;
69410;SDS011;56604;48.652;9.194;2022-11-20T02:14:22;5.13;;;4.73;;
69410;SDS011;56604;48.652;9.194;2022-11-20T02:16:49;9.67;;;4.87;;
69410;SDS011;56604;48.652;9.194;2022-11-20T02:19:19;5.87;;;4.70;;
69410;SDS011;56604;48.652;9.194;2022-11-20T02:24:19;5.87;;;5.27;;
69410;SDS011;56604;48.652;9.194;2022-11-20T02:26:54;5.80;;;5.20;;
69410;SDS011;56604;48.652;9.194;2022-11-20T02:29:42;15.73;;;5.50;;
69410;SDS011;56604;48.652;9.194;2022-11-20T02:32:33;7.47;;;5.50;;
69410;SDS011;56604;48.652;9.194;2022-11-20T02:37:53;5.77;;;5.27;;
69410;SDS011;56604;48.652;9.194;2022-11-20T02:40:20;12.13;;;5.80;;
69410;SDS011;56604;48.652;9.194;2022-11-20T02:42:45;5.83;;;5.20;;
69410;SDS011;56604;48.652;9.194;2022-11-20T02:45:11;5.50;;;5.00;;
69410;SDS011;56604;48.652;9.194;2022-11-20T02:47:36;6.50;;;4.87;;
69410;SDS011;56604;48.652;9.194;2022-11-20T02:50:02;8.97;;;5.50;;
69410;SDS011;56604;48.652;9.194;2022-11-20T02:52:28;5.63;;;5.00;;
69410;SDS011;56604;48.652;9.194;2022-11-20T02:54:55;5.60;;;4.97;;
69410;SDS011;56604;48.652;9.194;2022-11-20T02:57:20;5.03;;;4.60;;
69410;SDS011;56604;48.652;9.194;2022-11-20T02:59:45;5.63;;;5.07;;
69410;SDS011;56604;48.652;9.194;2022-11-20T03:02:11;8.33;;;4.10;;
69410;SDS011;56604;48.652;9.194;2022-11-20T03:04:36;5.47;;;4.97;;
69410;SDS011;56604;48.652;9.194;2022-11-20T03:07:01;4.70;;;4.40;;
69410;SDS011;56604;48.652;9.194;2022-11-20T03:09:27;4.87;;;4.47;;
69410;SDS011;56604;48.652;9.194;2022-11-20T03:11:52;4.57;;;4.27;;
69410;SDS011;56604;48.652;9.194;2022-11-20T03:14:17;6.80;;;3.77;;
69410;SDS011;56604;48.652;9.194;2022-11-20T03:16:43;8.20;;;4.70;;
69410;SDS011;56604;48.652;9.194;2022-11-20T03:19:08;5.13;;;4.73;;
69410;SDS011;56604;48.652;9.194;2022-11-20T03:21:33;4.13;;;3.83;;
69410;SDS011;56604;48.652;9.194;2022-11-20T03:23:59;5.30;;;3.93;;
69410;SDS011;56604;48.652;9.194;2022-11-20T03:26:25;4.00;;;3.70;;
69410;SDS011;56604;48.652;9.194;2022-11-20T03:28:52;5.00;;;3.93;;
69410;SDS011;56604;48.652;9.194;2022-11-20T03:31:19;4.03;;;3.73;;
69410;SDS011;56604;48.652;9.194;2022-11-20T03:33:46;4.43;;;3.83;;
69410;SDS011;56604;48.652;9.194;2022-11-20T03:36:12;4.30;;;3.90;;
69410;SDS011;56604;48.652;9.194;2022-11-20T03:38:39;4.13;;;3.83;;
69410;SDS011;56604;48.652;9.194;2022-11-20T03:41:06;4.13;;;3.70;;
69410;SDS011;56604;48.652;9.194;2022-11-20T03:43:33;6.83;;;3.93;;
69410;SDS011;56604;48.652;9.194;2022-11-20T03:45:59;4.80;;;4.30;;
69410;SDS011;56604;48.652;9.194;2022-11-20T03:48:24;6.20;;;3.77;;
69410;SDS011;56604;48.652;9.194;2022-11-20T03:50:50;4.23;;;3.93;;
69410;SDS011;56604;48.652;9.194;2022-11-20T03:53:17;4.27;;;3.97;;
69410;SDS011;56604;48.652;9.194;2022-11-20T03:55:43;4.63;;;4.20;;
69410;SDS011;56604;48.652;9.194;2022-11-20T03:58:08;3.97;;;3.70;;
69410;SDS011;56604;48.652;9.194;2022-11-20T04:00:34;4.17;;;3.87;;
69410;SDS011;56604;48.652;9.194;2022-11-20T04:03:00;4.13;;;3.90;;
69410;SDS011;56604;48.652;9.194;2022-11-20T04:05:26;5.67;;;4.00;;
69410;SDS011;56604;48.652;9.194;2022-11-20T04:07:52;4.30;;;3.90;;
69410;SDS011;56604;48.652;9.194;2022-11-20T04:10:18;5.13;;;3.47;;
69410;SDS011;56604;48.652;9.194;2022-11-20T04:12:43;3.47;;;3.27;;
69410;SDS011;56604;48.652;9.194;2022-11-20T04:15:08;4.20;;;3.90;;
69410;SDS011;56604;48.652;9.194;2022-11-20T04:17:34;4.50;;;4.20;;
69410;SDS011;56604;48.652;9.194;2022-11-20T04:19:59;4.90;;;3.57;;
69410;SDS011;56604;48.652;9.194;2022-11-20T04:22:25;3.57;;;3.37;;
69410;SDS011;56604;48.652;9.194;2022-11-20T04:24:50;4.17;;;3.73;;
69410;SDS011;56604;48.652;9.194;2022-11-20T04:27:15;4.50;;;3.40;;
69410;SDS011;56604;48.652;9.194;2022-11-20T04:29:41;4.70;;;3.63;;
69410;SDS011;56604;48.652;9.194;2022-11-20T04:32:06;3.27;;;2.97;;
69410;SDS011;56604;48.652;9.194;2022-11-20T04:34:31;3.30;;;3.20;;
69410;SDS011;56604;48.652;9.194;2022-11-20T04:36:57;4.43;;;3.30;;
69410;SDS011;56604;48.652;9.194;2022-11-20T04:39:22;3.90;;;3.13;;
69410;SDS011;56604;48.652;9.194;2022-11-20T04:41:47;3.20;;;3.03;;
69410;SDS011;56604;48.652;9.194;2022-11-20T04:44:13;3.23;;;3.10;;
69410;SDS011;56604;48.652;9.194;2022-11-20T04:46:39;3.77;;;3.20;;
69410;SDS011;56604;48.652;9.194;2022-11-20T04:49:06;5.13;;;2.77;;
69410;SDS011;56604;48.652;9.194;2022-11-20T04:51:32;3.20;;;3.00;;
69410;SDS011;56604;48.652;9.194;2022-11-20T04:53:58;3.10;;;2.90;;
69410;SDS011;56604;48.652;9.194;2022-11-20T04:56:23;2.50;;;2.50;;
69410;SDS011;56604;48.652;9.194;2022-11-20T04:58:49;2.80;;;2.60;;
69410;SDS011;56604;48.652;9.194;2022-11-20T05:01:15;3.07;;;2.60;;
69410;SDS011;56604;48.652;9.194;2022-11-20T05:03:43;5.90;;;3.67;;
69410;SDS011;56604;48.652;9.194;2022-11-20T05:06:10;3.63;;;2.90;;
69410;SDS011;56604;48.652;9.194;2022-11-20T05:08:37;3.00;;;2.80;;
69410;SDS011;56604;48.652;9.194;2022-11-20T05:11:04;3.03;;;2.90;;
69410;SDS011;56604;48.652;9.194;2022-11-20T05:13:31;3.30;;;3.00;;
69410;SDS011;56604;48.652;9.194;2022-11-20T05:16:00;5.13;;;2.60;;
69410;SDS011;56604;48.652;9.194;2022-11-20T05:18:30;3.13;;;2.77;;
69410;SDS011;56604;48.652;9.194;2022-11-20T05:20:56;2.87;;;2.37;;
69410;SDS011;56604;48.652;9.194;2022-11-20T05:23:22;6.53;;;2.50;;
69410;SDS011;56604;48.652;9.194;2022-11-20T05:25:47;2.93;;;2.80;;
69410;SDS011;56604;48.652;9.194;2022-11-20T05:28:13;2.70;;;2.50;;
69410;SDS011;56604;48.652;9.194;2022-11-20T05:30:39;2.33;;;2.23;;
69410;SDS011;56604;48.652;9.194;2022-11-20T05:33:04;2.40;;;2.30;;
69410;SDS011;56604;48.652;9.194;2022-11-20T05:35:29;4.37;;;2.63;;
69410;SDS011;56604;48.652;9.194;2022-11-20T05:37:54;2.43;;;2.33;;
69410;SDS011;56604;48.652;9.194;2022-11-20T05:40:20;2.70;;;2.50;;
69410;SDS011;56604;48.652;9.194;2022-11-20T05:42:45;2.10;;;2.10;;
69410;SDS011;56604;48.652;9.194;2022-11-20T05:45:10;2.43;;;2.33;;
69410;SDS011;56604;48.652;9.194;2022-11-20T05:47:35;2.50;;;2.30;;
69410;SDS011;56604;48.652;9.194;2022-11-20T05:50:01;2.20;;;2.10;;
69410;SDS011;56604;48.652;9.194;2022-11-20T05:52:29;2.63;;;2.40;;
69410;SDS011;56604;48.652;9.194;2022-11-20T05:54:55;3.80;;;2.77;;
69410;SDS011;56604;48.652;9.194;2022-11-20T05:57:21;3.70;;;2.73;;
69410;SDS011;56604;48.652;9.194;2022-11-20T05:59:46;2.93;;;2.83;;
69410;SDS011;56604;48.652;9.194;2022-11-20T06:02:11;2.50;;;2.30;;
69410;SDS011;56604;48.652;9.194;2022-11-20T06:04:37;2.30;;;2.20;;
69410;SDS011;56604;48.652;9.194;2022-11-20T06:07:02;2.07;;;2.07;;
69410;SDS011;56604;48.652;9.194;2022-11-20T06:09:29;1.90;;;1.80;;
69410;SDS011;56604;48.652;9.194;2022-11-20T06:11:54;2.60;;;2.50;;
69410;SDS011;56604;48.652;9.194;2022-11-20T06:14:19;2.90;;;2.80;;
69410;SDS011;56604;48.652;9.194;2022-11-20T06:16:45;3.60;;;2.57;;
69410;SDS011;56604;48.652;9.194;2022-11-20T06:19:10;4.43;;;2.83;;
69410;SDS011;56604;48.652;9.194;2022-11-20T06:21:35;2.93;;;2.83;;
69410;SDS011;56604;48.652;9.194;2022-11-20T06:24:00;2.33;;;2.23;;
69410;SDS011;56604;48.652;9.194;2022-11-20T06:26:26;2.77;;;2.67;;
69410;SDS011;56604;48.652;9.194;2022-11-20T06:28:52;3.37;;;2.40;;
69410;SDS011;56604;48.652;9.194;2022-11-20T06:31:20;3.03;;;2.83;;
69410;SDS011;56604;48.652;9.194;2022-11-20T06:33:47;2.40;;;2.30;;
69410;SDS011;56604;48.652;9.194;2022-11-20T06:36:13;2.40;;;2.30;;
69410;SDS011;56604;48.652;9.194;2022-11-20T06:38:40;3.27;;;3.00;;
69410;SDS011;56604;48.652;9.194;2022-11-20T06:41:06;3.73;;;2.60;;
69410;SDS011;56604;48.652;9.194;2022-11-20T06:43:35;2.70;;;2.50;;
69410;SDS011;56604;48.652;9.194;2022-11-20T06:46:00;3.00;;;2.90;;
69410;SDS011;56604;48.652;9.194;2022-11-20T06:48:26;2.57;;;2.43;;
69410;SDS011;56604;48.652;9.194;2022-11-20T06:50:52;3.27;;;2.90;;
69410;SDS011;56604;48.652;9.194;2022-11-20T06:53:18;2.17;;;2.17;;
69410;SDS011;56604;48.652;9.194;2022-11-20T06:55:44;3.13;;;2.13;;
69410;SDS011;56604;48.652;9.194;2022-11-20T06:58:14;2.63;;;2.53;;
69410;SDS011;56604;48.652;9.194;2022-11-20T07:00:40;2.67;;;2.50;;
69410;SDS011;56604;48.652;9.194;2022-11-20T07:03:06;2.90;;;2.77;;
69410;SDS011;56604;48.652;9.194;2022-11-20T07:05:32;2.60;;;2.40;;
69410;SDS011;56604;48.652;9.194;2022-11-20T07:07:58;2.20;;;2.10;;
69410;SDS011;56604;48.652;9.194;2022-11-20T07:10:24;3.47;;;2.43;;
69410;SDS011;56604;48.652;9.194;2022-11-20T07:12:50;4.80;;;2.17;;
69410;SDS011;56604;48.652;9.194;2022-11-20T07:15:17;2.60;;;2.43;;
69410;SDS011;56604;48.652;9.194;2022-11-20T07:17:43;2.30;;;2.17;;
69410;SDS011;56604;48.652;9.194;2022-11-20T07:20:08;1.97;;;1.93;;
69410;SDS011;56604;48.652;9.194;2022-11-20T07:22:34;2.37;;;2.20;;
69410;SDS011;56604;48.652;9.194;2022-11-20T07:24:59;1.90;;;1.90;;
69410;SDS011;56604;48.652;9.194;2022-11-20T07:27:25;2.30;;;2.20;;
69410;SDS011;56604;48.652;9.194;2022-11-20T07:29:50;2.30;;;2.20;;
69410;SDS011;56604;48.652;9.194;2022-11-20T07:32:16;3.10;;;2.70;;
69410;SDS011;56604;48.652;9.194;2022-11-20T07:34:41;3.07;;;2.30;;
69410;SDS011;56604;48.652;9.194;2022-11-20T07:37:06;2.47;;;2.37;;
69410;SDS011;56604;48.652;9.194;2022-11-20T07:39:31;2.37;;;2.17;;
69410;SDS011;56604;48.652;9.194;2022-11-20T07:41:57;2.80;;;2.60;;
69410;SDS011;56604;48.652;9.194;2022-11-20T07:44:22;2.73;;;2.30;;
69410;SDS011;56604;48.652;9.194;2022-11-20T07:46:47;4.70;;;2.70;;
69410;SDS011;56604;48.652;9.194;2022-11-20T07:49:13;2.30;;;2.20;;
69410;SDS011;56604;48.652;9.194;2022-11-20T07:51:38;2.57;;;2.47;;
69410;SDS011;56604;48.652;9.194;2022-11-20T07:54:03;2.13;;;2.03;;
69410;SDS011;56604;48.652;9.194;2022-11-20T07:56:28;2.03;;;2.00;;
69410;SDS011;56604;48.652;9.194;2022-11-20T07:58:54;2.00;;;1.90;;
69410;SDS011;56604;48.652;9.194;2022-11-20T08:01:19;1.60;;;1.60;;
69410;SDS011;56604;48.652;9.194;2022-11-20T08:03:44;2.20;;;2.10;;
69410;SDS011;56604;48.652;9.194;2022-11-20T08:06:09;2.40;;;2.30;;
69410;SDS011;56604;48.652;9.194;2022-11-20T08:08:35;2.00;;;1.90;;
69410;SDS011;56604;48.652;9.194;2022-11-20T08:11:00;1.63;;;1.63;;
69410;SDS011;56604;48.652;9.194;2022-11-20T08:13:44;2.10;;;2.00;;
69410;SDS011;56604;48.652;9.194;2022-11-20T08:16:28;1.90;;;1.90;;
69410;SDS011;56604;48.652;9.194;2022-11-20T08:18:53;1.73;;;1.67;;
69410;SDS011;56604;48.652;9.194;2022-11-20T08:21:19;1.67;;;1.47;;
69410;SDS011;56604;48.652;9.194;2022-11-20T08:23:44;2.20;;;2.10;;
69410;SDS011;56604;48.652;9.194;2022-11-20T08:26:10;5.37;;;1.90;;
69410;SDS011;56604;48.652;9.194;2022-11-20T08:28:35;1.70;;;1.60;;
69410;SDS011;56604;48.652;9.194;2022-11-20T08:31:00;2.97;;;1.60;;
69410;SDS011;56604;48.652;9.194;2022-11-20T08:33:27;4.43;;;1.90;;
69410;SDS011;56604;48.652;9.194;2022-11-20T08:35:53;3.27;;;1.80;;
69410;SDS011;56604;48.652;9.194;2022-11-20T08:38:18;2.20;;;2.10;;
69410;SDS011;56604;48.652;9.194;2022-11-20T08:40:43;2.00;;;2.00;;
69410;SDS011;56604;48.652;9.194;2022-11-20T08:43:31;2.00;;;1.90;;
69410;SDS011;56604;48.652;9.194;2022-11-20T08:45:57;1.97;;;1.97;;
69410;SDS011;56604;48.652;9.194;2022-11-20T08:48:22;2.20;;;1.83;;
69410;SDS011;56604;48.652;9.194;2022-11-20T08:50:47;1.80;;;1.70;;
69410;SDS011;56604;48.652;9.194;2022-11-20T08:53:13;2.07;;;1.97;;
69410;SDS011;56604;48.652;9.194;2022-11-20T08:55:38;2.90;;;1.70;;
69410;SDS011;56604;48.652;9.194;2022-11-20T08:58:04;1.97;;;1.87;;
69410;SDS011;56604;48.652;9.194;2022-11-20T09:00:33;1.93;;;1.83;;
69410;SDS011;56604;48.652;9.194;2022-11-20T09:02:59;1.70;;;1.60;;
69410;SDS011;56604;48.652;9.194;2022-11-20T09:05:26;2.10;;;2.00;;
69410;SDS011;56604;48.652;9.194;2022-11-20T09:07:51;2.07;;;1.97;;
69410;SDS011;56604;48.652;9.194;2022-11-20T09:10:17;1.60;;;1.50;;
69410;SDS011;56604;48.652;9.194;2022-11-20T09:12:42;1.53;;;1.53;;
69410;SDS011;56604;48.652;9.194;2022-11-20T09:15:07;1.50;;;1.50;;
69410;SDS011;56604;48.652;9.194;2022-11-20T09:17:33;1.40;;;1.30;;
69410;SDS011;56604;48.652;9.194;2022-11-20T09:19:58;1.43;;;1.43;;
69410;SDS011;56604;48.652;9.194;2022-11-20T09:22:24;1.57;;;1.47;;
69410;SDS011;56604;48.652;9.194;2022-11-20T09:24:49;1.30;;;1.30;;
69410;SDS011;56604;48.652;9.194;2022-11-20T09:27:14;6.63;;;1.60;;
69410;SDS011;56604;48.652;9.194;2022-11-20T09:29:43;1.63;;;1.53;;
69410;SDS011;56604;48.652;9.194;2022-11-20T09:32:08;1.40;;;1.30;;
69410;SDS011;56604;48.652;9.194;2022-11-20T09:34:34;1.37;;;1.37;;
69410;SDS011;56604;48.652;9.194;2022-11-20T09:36:59;1.20;;;1.20;;
69410;SDS011;56604;48.652;9.194;2022-11-20T09:39:24;1.87;;;1.77;;
69410;SDS011;56604;48.652;9.194;2022-11-20T09:42:35;1.63;;;1.23;;
69410;SDS011;56604;48.652;9.194;2022-11-20T09:52:56;1.63;;;1.63;;
69410;SDS011;56604;48.652;9.194;2022-11-20T09:55:40;1.53;;;1.27;;
69410;SDS011;56604;48.652;9.194;2022-11-20T09:58:07;1.27;;;1.23;;
69410;SDS011;56604;48.652;9.194;2022-11-20T10:00:38;2.20;;;1.13;;
69410;SDS011;56604;48.652;9.194;2022-11-20T10:03:13;2.20;;;1.40;;
69410;SDS011;56604;48.652;9.194;2022-11-20T10:05:45;1.00;;;1.00;;
69410;SDS011;56604;48.652;9.194;2022-11-20T10:08:17;0.93;;;0.93;;
69410;SDS011;56604;48.652;9.194;2022-11-20T10:13:40;1.07;;;1.07;;
69410;SDS011;56604;48.652;9.194;2022-11-20T10:16:36;1.17;;;1.07;;
69410;SDS011;56604;48.652;9.194;2022-11-20T10:30:43;0.70;;;0.70;;
69410;SDS011;56604;48.652;9.194;2022-11-20T10:33:16;0.73;;;0.67;;
69410;SDS011;56604;48.652;9.194;2022-11-20T10:35:52;0.70;;;0.70;;
69410;SDS011;56604;48.652;9.194;2022-11-20T10:38:34;1.20;;;1.20;;
69410;SDS011;56604;48.652;9.194;2022-11-20T10:41:07;1.00;;;1.00;;
69410;SDS011;56604;48.652;9.194;2022-11-20T10:44:03;0.90;;;0.90;;
69410;SDS011;56604;48.652;9.194;2022-11-20T10:46:36;1.10;;;1.10;;
69410;SDS011;56604;48.652;9.194;2022-11-20T10:49:15;1.23;;;1.20;;
69410;SDS011;56604;48.652;9.194;2022-11-20T10:54:42;1.00;;;0.90;;
69410;SDS011;56604;48.652;9.194;2022-11-20T10:57:44;1.20;;;1.20;;
69410;SDS011;56604;48.652;9.194;2022-11-20T11:00:17;0.93;;;0.93;;
69410;SDS011;56604;48.652;9.194;2022-11-20T11:02:44;1.47;;;0.80;;
69410;SDS011;56604;48.652;9.194;2022-11-20T11:07:43;0.97;;;0.97;;
69410;SDS011;56604;48.652;9.194;2022-11-20T11:13:06;5.03;;;1.27;;
69410;SDS011;56604;48.652;9.194;2022-11-20T11:15:38;1.20;;;1.20;;
69410;SDS011;56604;48.652;9.194;2022-11-20T11:18:08;1.50;;;1.50;;
69410;SDS011;56604;48.652;9.194;2022-11-20T11:20:49;1.50;;;1.40;;
69410;SDS011;56604;48.652;9.194;2022-11-20T11:26:02;0.90;;;0.90;;
69410;SDS011;56604;48.652;9.194;2022-11-20T11:28:29;1.20;;;1.20;;
69410;SDS011;56604;48.652;9.194;2022-11-20T11:30:55;1.33;;;1.23;;
69410;SDS011;56604;48.652;9.194;2022-11-20T11:33:24;1.10;;;1.10;;
69410;SDS011;56604;48.652;9.194;2022-11-20T11:35:52;1.30;;;1.30;;
69410;SDS011;56604;48.652;9.194;2022-11-20T11:41:06;1.10;;;1.10;;
69410;SDS011;56604;48.652;9.194;2022-11-20T11:43:35;2.00;;;1.40;;
69410;SDS011;56604;48.652;9.194;2022-11-20T11:49:08;1.30;;;1.30;;
69410;SDS011;56604;48.652;9.194;2022-11-20T12:00:08;1.93;;;1.80;;
69410;SDS011;56604;48.652;9.194;2022-11-20T12:05:23;1.70;;;1.60;;
69410;SDS011;56604;48.652;9.194;2022-11-20T12:16:14;14.10;;;1.87;;
69410;SDS011;56604;48.652;9.194;2022-11-20T12:18:41;1.77;;;1.30;;
69410;SDS011;56604;48.652;9.194;2022-11-20T12:21:12;1.77;;;1.20;;
69410;SDS011;56604;48.652;9.194;2022-11-20T12:37:49;2.67;;;1.10;;
69410;SDS011;56604;48.652;9.194;2022-11-20T12:43:22;3.47;;;1.07;;
69410;SDS011;56604;48.652;9.194;2022-11-20T13:04:48;1.60;;;1.07;;
69410;SDS011;56604;48.652;9.194;2022-11-20T13:07:34;0.90;;;0.90;;
69410;SDS011;56604;48.652;9.194;2022-11-20T13:10:00;4.27;;;2.97;;
69410;SDS011;56604;48.652;9.194;2022-11-20T13:12:43;4.97;;;1.40;;
69410;SDS011;56604;48.652;9.194;2022-11-20T13:18:04;3.53;;;1.10;;
69410;SDS011;56604;48.652;9.194;2022-11-20T13:20:33;1.23;;;1.23;;
69410;SDS011;56604;48.652;9.194;2022-11-20T13:23:00;3.27;;;1.30;;
69410;SDS011;56604;48.652;9.194;2022-11-20T13:25:30;1.43;;;1.23;;
69410;SDS011;56604;48.652;9.194;2022-11-20T13:28:04;1.93;;;1.20;;
69410;SDS011;56604;48.652;9.194;2022-11-20T13:30:36;1.70;;;1.60;;
69410;SDS011;56604;48.652;9.194;2022-11-20T13:33:56;2.10;;;1.10;;
69410;SDS011;56604;48.652;9.194;2022-11-20T13:36:04;1.73;;;1.43;;
69410;SDS011;56604;48.652;9.194;2022-11-20T13:38:48;2.13;;;1.10;;
69410;SDS011;56604;48.652;9.194;2022-11-20T13:41:25;2.47;;;1.20;;
69410;SDS011;56604;48.652;9.194;2022-11-20T13:43:53;2.20;;;1.10;;
69410;SDS011;56604;48.652;9.194;2022-11-20T13:46:23;3.13;;;1.10;;
69410;SDS011;56604;48.652;9.194;2022-11-20T13:48:49;1.37;;;1.27;;
69410;SDS011;56604;48.652;9.194;2022-11-20T13:57:03;3.97;;;1.60;;
69410;SDS011;56604;48.652;9.194;2022-11-20T14:02:29;1.10;;;1.10;;
69410;SDS011;56604;48.652;9.194;2022-11-20T14:04:56;2.73;;;0.90;;
69410;SDS011;56604;48.652;9.194;2022-11-20T14:07:24;1.10;;;1.00;;
69410;SDS011;56604;48.652;9.194;2022-11-20T14:09:57;8.70;;;1.03;;
69410;SDS011;56604;48.652;9.194;2022-11-20T14:12:27;1.23;;;1.23;;
69410;SDS011;56604;48.652;9.194;2022-11-20T14:14:55;1.70;;;1.57;;
69410;SDS011;56604;48.652;9.194;2022-11-20T14:17:22;3.13;;;1.27;;
69410;SDS011;56604;48.652;9.194;2022-11-20T14:19:53;2.33;;;1.40;;
69410;SDS011;56604;48.652;9.194;2022-11-20T14:22:21;1.27;;;1.00;;
69410;SDS011;56604;48.652;9.194;2022-11-20T14:24:49;2.03;;;1.50;;
69410;SDS011;56604;48.652;9.194;2022-11-20T14:27:44;2.90;;;1.47;;
69410;SDS011;56604;48.652;9.194;2022-11-20T14:30:16;1.10;;;1.10;;
69410;SDS011;56604;48.652;9.194;2022-11-20T14:32:44;1.47;;;1.40;;
69410;SDS011;56604;48.652;9.194;2022-11-20T14:35:45;1.50;;;1.50;;
69410;SDS011;56604;48.652;9.194;2022-11-20T14:38:10;1.50;;;1.50;;
69410;SDS011;56604;48.652;9.194;2022-11-20T14:40:38;1.37;;;1.37;;
69410;SDS011;56604;48.652;9.194;2022-11-20T14:43:26;2.47;;;1.33;;
69410;SDS011;56604;48.652;9.194;2022-11-20T14:45:57;4.17;;;1.20;;
69410;SDS011;56604;48.652;9.194;2022-11-20T14:48:30;1.33;;;1.33;;
69410;SDS011;56604;48.652;9.194;2022-11-20T14:54:08;2.37;;;2.27;;
69410;SDS011;56604;48.652;9.194;2022-11-20T14:56:34;3.83;;;2.43;;
69410;SDS011;56604;48.652;9.194;2022-11-20T14:59:00;20.43;;;13.40;;
69410;SDS011;56604;48.652;9.194;2022-11-20T15:01:26;12.67;;;5.00;;
69410;SDS011;56604;48.652;9.194;2022-11-20T15:04:00;8.00;;;5.23;;
69410;SDS011;56604;48.652;9.194;2022-11-20T15:06:29;3.07;;;2.83;;
69410;SDS011;56604;48.652;9.194;2022-11-20T15:08:56;2.43;;;2.23;;
69410;SDS011;56604;48.652;9.194;2022-11-20T15:11:25;9.63;;;5.10;;
69410;SDS011;56604;48.652;9.194;2022-11-20T15:13:54;2.10;;;1.90;;
69410;SDS011;56604;48.652;9.194;2022-11-20T15:16:20;3.30;;;2.63;;
69410;SDS011;56604;48.652;9.194;2022-11-20T15:18:48;4.77;;;3.57;;
69410;SDS011;56604;48.652;9.194;2022-11-20T15:21:14;10.10;;;5.00;;
69410;SDS011;56604;48.652;9.194;2022-11-20T15:23:44;5.60;;;3.10;;
69410;SDS011;56604;48.652;9.194;2022-11-20T15:26:10;2.90;;;2.70;;
69410;SDS011;56604;48.652;9.194;2022-11-20T15:28:41;1.77;;;1.77;;
69410;SDS011;56604;48.652;9.194;2022-11-20T15:31:12;7.33;;;5.57;;
69410;SDS011;56604;48.652;9.194;2022-11-20T15:33:38;6.20;;;5.13;;
69410;SDS011;56604;48.652;9.194;2022-11-20T15:36:04;6.00;;;5.40;;
69410;SDS011;56604;48.652;9.194;2022-11-20T15:38:29;11.17;;;7.93;;
69410;SDS011;56604;48.652;9.194;2022-11-20T15:40:55;14.93;;;10.07;;
69410;SDS011;56604;48.652;9.194;2022-11-20T15:43:20;6.80;;;6.10;;
69410;SDS011;56604;48.652;9.194;2022-11-20T15:45:46;3.90;;;3.47;;
69410;SDS011;56604;48.652;9.194;2022-11-20T15:48:17;3.40;;;2.87;;
69410;SDS011;56604;48.652;9.194;2022-11-20T15:50:54;11.53;;;2.17;;
69410;SDS011;56604;48.652;9.194;2022-11-20T15:53:23;1.80;;;1.70;;
69410;SDS011;56604;48.652;9.194;2022-11-20T15:55:48;2.37;;;2.27;;
69410;SDS011;56604;48.652;9.194;2022-11-20T15:58:14;2.90;;;1.60;;
69410;SDS011;56604;48.652;9.194;2022-11-20T16:00:41;1.67;;;1.60;;
69410;SDS011;56604;48.652;9.194;2022-11-20T16:03:09;1.77;;;1.67;;
69410;SDS011;56604;48.652;9.194;2022-11-20T16:05:36;2.17;;;2.07;;
69410;SDS011;56604;48.652;9.194;2022-11-20T16:08:01;3.07;;;2.23;;
69410;SDS011;56604;48.652;9.194;2022-11-20T16:10:26;3.33;;;2.03;;
69410;SDS011;56604;48.652;9.194;2022-11-20T16:12:52;3.07;;;2.40;;
69410;SDS011;56604;48.652;9.194;2022-11-20T16:15:35;2.10;;;2.00;;
69410;SDS011;56604;48.652;9.194;2022-11-20T16:18:10;1.90;;;1.80;;
69410;SDS011;56604;48.652;9.194;2022-11-20T16:20:36;6.93;;;2.30;;
69410;SDS011;56604;48.652;9.194;2022-11-20T16:23:02;1.60;;;1.50;;
69410;SDS011;56604;48.652;9.194;2022-11-20T16:25:27;6.57;;;1.93;;
69410;SDS011;56604;48.652;9.194;2022-11-20T16:27:53;2.30;;;2.30;;
69410;SDS011;56604;48.652;9.194;2022-11-20T16:30:18;1.50;;;1.50;;
69410;SDS011;56604;48.652;9.194;2022-11-20T16:32:43;2.57;;;2.33;;
69410;SDS011;56604;48.652;9.194;2022-11-20T16:35:09;2.40;;;1.50;;
69410;SDS011;56604;48.652;9.194;2022-11-20T16:37:34;1.90;;;1.80;;
69410;SDS011;56604;48.652;9.194;2022-11-20T16:39:59;1.83;;;1.77;;
69410;SDS011;56604;48.652;9.194;2022-11-20T16:42:24;2.27;;;2.17;;
69410;SDS011;56604;48.652;9.194;2022-11-20T16:44:50;1.97;;;1.97;;
69410;SDS011;56604;48.652;9.194;2022-11-20T16:47:15;3.00;;;2.90;;
69410;SDS011;56604;48.652;9.194;2022-11-20T16:49:40;2.90;;;2.53;;